Granite Canyon, Wyoming
Current Conditions -  °F | °C
As of 1:56 AM on Friday 31 Oct 2014 (Local Time) from KFEW Reporting Station
Clear Clear  
Wind Chill: 25°   Ceiling: Unl
Heat Index: 32°   Visibility: 10mi
Dew Point: 28°   Wind: 8mph
Humidity: 85%   Direction: 170°S
Pressure: 30.36"   Gusts: NA
Location:  41.0966°N, 105.138°W
Report Text: KFEW 310756Z AUTO 17007KT 10SM CLR 00/M02 A3036 RMK AO2 SLP263 T00011021 $
Loading
Personal Weather Stations






























Interactive Weather Map
Tropical Storm Tracking
New forecast layout! Learn more

10-Day Weather Forecast

Advertisements
Track Severe Weather on mobile